sensor_id;sensor_type;location;lat;lon;timestamp;P1;durP1;ratioP1;P2;durP2;ratioP2
12328;SDS011;6230;52.390;10.256;2023-03-17T00:00:13;5.10;;;2.70;;
12328;SDS011;6230;52.390;10.256;2023-03-17T00:02:40;3.97;;;3.10;;
12328;SDS011;6230;52.390;10.256;2023-03-17T00:05:17;3.13;;;2.57;;
12328;SDS011;6230;52.390;10.256;2023-03-17T00:07:44;5.23;;;2.80;;
12328;SDS011;6230;52.390;10.256;2023-03-17T00:10:23;4.27;;;2.93;;
12328;SDS011;6230;52.390;10.256;2023-03-17T00:12:51;3.70;;;2.87;;
12328;SDS011;6230;52.390;10.256;2023-03-17T00:15:19;3.90;;;2.77;;
12328;SDS011;6230;52.390;10.256;2023-03-17T00:17:50;3.07;;;2.67;;
12328;SDS011;6230;52.390;10.256;2023-03-17T00:20:22;5.60;;;2.97;;
12328;SDS011;6230;52.390;10.256;2023-03-17T00:22:51;3.00;;;2.70;;
12328;SDS011;6230;52.390;10.256;2023-03-17T00:25:22;3.03;;;2.73;;
12328;SDS011;6230;52.390;10.256;2023-03-17T00:27:51;4.60;;;3.13;;
12328;SDS011;6230;52.390;10.256;2023-03-17T00:30:17;3.73;;;2.70;;
12328;SDS011;6230;52.390;10.256;2023-03-17T00:32:43;4.67;;;3.27;;
12328;SDS011;6230;52.390;10.256;2023-03-17T00:35:23;4.73;;;3.40;;
12328;SDS011;6230;52.390;10.256;2023-03-17T00:37:53;4.50;;;3.47;;
12328;SDS011;6230;52.390;10.256;2023-03-17T00:40:22;4.63;;;3.17;;
12328;SDS011;6230;52.390;10.256;2023-03-17T00:42:50;5.03;;;3.30;;
12328;SDS011;6230;52.390;10.256;2023-03-17T00:45:16;3.87;;;3.10;;
12328;SDS011;6230;52.390;10.256;2023-03-17T00:47:43;4.90;;;3.43;;
12328;SDS011;6230;52.390;10.256;2023-03-17T00:50:11;4.53;;;3.07;;
12328;SDS011;6230;52.390;10.256;2023-03-17T00:52:39;4.23;;;2.83;;
12328;SDS011;6230;52.390;10.256;2023-03-17T00:55:06;3.07;;;2.77;;
12328;SDS011;6230;52.390;10.256;2023-03-17T00:57:33;3.83;;;2.90;;
12328;SDS011;6230;52.390;10.256;2023-03-17T00:59:59;6.30;;;3.27;;
12328;SDS011;6230;52.390;10.256;2023-03-17T01:02:25;3.50;;;3.10;;
12328;SDS011;6230;52.390;10.256;2023-03-17T01:04:51;7.23;;;3.33;;
12328;SDS011;6230;52.390;10.256;2023-03-17T01:07:17;3.30;;;2.97;;
12328;SDS011;6230;52.390;10.256;2023-03-17T01:09:43;3.83;;;3.20;;
12328;SDS011;6230;52.390;10.256;2023-03-17T01:12:10;5.23;;;3.40;;
12328;SDS011;6230;52.390;10.256;2023-03-17T01:14:37;4.47;;;3.40;;
12328;SDS011;6230;52.390;10.256;2023-03-17T01:17:05;3.60;;;3.30;;
12328;SDS011;6230;52.390;10.256;2023-03-17T01:19:37;4.40;;;3.53;;
12328;SDS011;6230;52.390;10.256;2023-03-17T01:22:03;3.73;;;3.33;;
12328;SDS011;6230;52.390;10.256;2023-03-17T01:24:29;4.90;;;3.33;;
12328;SDS011;6230;52.390;10.256;2023-03-17T01:26:54;4.73;;;3.30;;
12328;SDS011;6230;52.390;10.256;2023-03-17T01:29:20;4.67;;;3.10;;
12328;SDS011;6230;52.390;10.256;2023-03-17T01:31:45;3.53;;;3.10;;
12328;SDS011;6230;52.390;10.256;2023-03-17T01:34:11;3.93;;;3.37;;
12328;SDS011;6230;52.390;10.256;2023-03-17T01:36:37;3.40;;;3.10;;
12328;SDS011;6230;52.390;10.256;2023-03-17T01:39:02;4.60;;;3.37;;
12328;SDS011;6230;52.390;10.256;2023-03-17T01:41:31;3.43;;;3.13;;
12328;SDS011;6230;52.390;10.256;2023-03-17T01:43:58;4.93;;;3.23;;
12328;SDS011;6230;52.390;10.256;2023-03-17T01:52:17;4.30;;;3.20;;
12328;SDS011;6230;52.390;10.256;2023-03-17T01:54:54;4.40;;;3.73;;
12328;SDS011;6230;52.390;10.256;2023-03-17T02:00:03;3.67;;;3.37;;
12328;SDS011;6230;52.390;10.256;2023-03-17T02:02:36;4.70;;;2.97;;
12328;SDS011;6230;52.390;10.256;2023-03-17T02:05:04;5.97;;;3.10;;
12328;SDS011;6230;52.390;10.256;2023-03-17T02:07:33;5.90;;;3.40;;
12328;SDS011;6230;52.390;10.256;2023-03-17T02:09:59;4.43;;;3.40;;
12328;SDS011;6230;52.390;10.256;2023-03-17T02:12:26;4.33;;;3.53;;
12328;SDS011;6230;52.390;10.256;2023-03-17T02:14:53;4.23;;;3.23;;
12328;SDS011;6230;52.390;10.256;2023-03-17T02:17:19;3.93;;;3.43;;
12328;SDS011;6230;52.390;10.256;2023-03-17T02:19:47;4.03;;;3.30;;
12328;SDS011;6230;52.390;10.256;2023-03-17T02:22:12;3.93;;;3.43;;
12328;SDS011;6230;52.390;10.256;2023-03-17T02:24:40;4.43;;;3.33;;
12328;SDS011;6230;52.390;10.256;2023-03-17T02:27:29;3.70;;;3.20;;
12328;SDS011;6230;52.390;10.256;2023-03-17T02:29:59;4.43;;;3.80;;
12328;SDS011;6230;52.390;10.256;2023-03-17T02:32:25;4.00;;;3.10;;
12328;SDS011;6230;52.390;10.256;2023-03-17T02:34:51;3.50;;;2.97;;
12328;SDS011;6230;52.390;10.256;2023-03-17T02:37:18;5.30;;;3.37;;
12328;SDS011;6230;52.390;10.256;2023-03-17T02:39:44;5.33;;;3.30;;
12328;SDS011;6230;52.390;10.256;2023-03-17T02:42:11;4.20;;;3.40;;
12328;SDS011;6230;52.390;10.256;2023-03-17T02:44:37;5.30;;;3.27;;
12328;SDS011;6230;52.390;10.256;2023-03-17T02:47:03;3.90;;;3.13;;
12328;SDS011;6230;52.390;10.256;2023-03-17T02:49:30;4.43;;;3.30;;
12328;SDS011;6230;52.390;10.256;2023-03-17T02:51:57;4.70;;;3.43;;
12328;SDS011;6230;52.390;10.256;2023-03-17T02:54:23;3.90;;;3.50;;
12328;SDS011;6230;52.390;10.256;2023-03-17T02:56:49;4.97;;;3.47;;
12328;SDS011;6230;52.390;10.256;2023-03-17T02:59:14;4.30;;;3.30;;
12328;SDS011;6230;52.390;10.256;2023-03-17T03:01:40;4.90;;;3.60;;
12328;SDS011;6230;52.390;10.256;2023-03-17T03:04:06;5.20;;;3.60;;
12328;SDS011;6230;52.390;10.256;2023-03-17T03:06:32;3.93;;;3.53;;
12328;SDS011;6230;52.390;10.256;2023-03-17T03:08:59;3.93;;;3.27;;
12328;SDS011;6230;52.390;10.256;2023-03-17T03:11:24;5.63;;;4.00;;
12328;SDS011;6230;52.390;10.256;2023-03-17T03:13:50;3.83;;;3.40;;
12328;SDS011;6230;52.390;10.256;2023-03-17T03:16:16;4.77;;;3.57;;
12328;SDS011;6230;52.390;10.256;2023-03-17T03:18:41;6.47;;;3.80;;
12328;SDS011;6230;52.390;10.256;2023-03-17T03:21:07;4.63;;;3.53;;
12328;SDS011;6230;52.390;10.256;2023-03-17T03:23:33;5.03;;;4.00;;
12328;SDS011;6230;52.390;10.256;2023-03-17T03:25:59;4.50;;;4.10;;
12328;SDS011;6230;52.390;10.256;2023-03-17T03:28:24;5.90;;;3.60;;
12328;SDS011;6230;52.390;10.256;2023-03-17T03:30:50;5.33;;;3.63;;
12328;SDS011;6230;52.390;10.256;2023-03-17T03:33:16;4.57;;;3.73;;
12328;SDS011;6230;52.390;10.256;2023-03-17T03:35:42;4.87;;;3.70;;
12328;SDS011;6230;52.390;10.256;2023-03-17T03:38:08;6.20;;;3.90;;
12328;SDS011;6230;52.390;10.256;2023-03-17T03:40:35;4.57;;;3.70;;
12328;SDS011;6230;52.390;10.256;2023-03-17T03:43:00;4.50;;;3.90;;
12328;SDS011;6230;52.390;10.256;2023-03-17T03:45:26;4.13;;;3.73;;
12328;SDS011;6230;52.390;10.256;2023-03-17T03:47:52;3.90;;;3.50;;
12328;SDS011;6230;52.390;10.256;2023-03-17T03:50:17;4.30;;;3.73;;
12328;SDS011;6230;52.390;10.256;2023-03-17T03:52:43;4.77;;;3.83;;
12328;SDS011;6230;52.390;10.256;2023-03-17T03:55:09;4.67;;;4.03;;
12328;SDS011;6230;52.390;10.256;2023-03-17T03:57:35;6.33;;;3.83;;
12328;SDS011;6230;52.390;10.256;2023-03-17T04:00:00;5.67;;;4.10;;
12328;SDS011;6230;52.390;10.256;2023-03-17T04:02:26;4.50;;;3.60;;
12328;SDS011;6230;52.390;10.256;2023-03-17T04:04:52;5.87;;;3.97;;
12328;SDS011;6230;52.390;10.256;2023-03-17T04:07:18;4.73;;;3.90;;
12328;SDS011;6230;52.390;10.256;2023-03-17T04:09:45;5.53;;;3.87;;
12328;SDS011;6230;52.390;10.256;2023-03-17T04:12:11;7.73;;;4.10;;
12328;SDS011;6230;52.390;10.256;2023-03-17T04:14:37;7.40;;;4.37;;
12328;SDS011;6230;52.390;10.256;2023-03-17T04:17:02;4.60;;;3.93;;
12328;SDS011;6230;52.390;10.256;2023-03-17T04:19:29;5.33;;;4.30;;
12328;SDS011;6230;52.390;10.256;2023-03-17T04:21:55;6.30;;;4.30;;
12328;SDS011;6230;52.390;10.256;2023-03-17T04:24:20;5.07;;;4.07;;
12328;SDS011;6230;52.390;10.256;2023-03-17T04:26:46;7.07;;;4.20;;
12328;SDS011;6230;52.390;10.256;2023-03-17T04:29:11;5.57;;;3.80;;
12328;SDS011;6230;52.390;10.256;2023-03-17T04:31:39;4.87;;;4.17;;
12328;SDS011;6230;52.390;10.256;2023-03-17T04:34:06;6.43;;;4.30;;
12328;SDS011;6230;52.390;10.256;2023-03-17T04:36:35;4.80;;;3.90;;
12328;SDS011;6230;52.390;10.256;2023-03-17T04:39:01;5.27;;;3.80;;
12328;SDS011;6230;52.390;10.256;2023-03-17T04:41:26;6.17;;;4.30;;
12328;SDS011;6230;52.390;10.256;2023-03-17T04:43:52;5.63;;;4.10;;
12328;SDS011;6230;52.390;10.256;2023-03-17T04:46:17;4.53;;;3.53;;
12328;SDS011;6230;52.390;10.256;2023-03-17T04:48:43;5.30;;;3.97;;
12328;SDS011;6230;52.390;10.256;2023-03-17T04:51:08;5.33;;;3.83;;
12328;SDS011;6230;52.390;10.256;2023-03-17T04:53:34;6.00;;;4.13;;
12328;SDS011;6230;52.390;10.256;2023-03-17T04:55:59;5.77;;;4.20;;
12328;SDS011;6230;52.390;10.256;2023-03-17T04:58:25;5.80;;;4.50;;
12328;SDS011;6230;52.390;10.256;2023-03-17T05:00:50;5.53;;;4.13;;
12328;SDS011;6230;52.390;10.256;2023-03-17T05:03:16;5.37;;;4.40;;
12328;SDS011;6230;52.390;10.256;2023-03-17T05:05:42;5.53;;;4.73;;
12328;SDS011;6230;52.390;10.256;2023-03-17T05:08:07;5.90;;;4.43;;
12328;SDS011;6230;52.390;10.256;2023-03-17T05:10:33;5.87;;;4.40;;
12328;SDS011;6230;52.390;10.256;2023-03-17T05:12:58;5.17;;;4.47;;
12328;SDS011;6230;52.390;10.256;2023-03-17T05:15:24;8.17;;;4.40;;
12328;SDS011;6230;52.390;10.256;2023-03-17T05:17:50;6.60;;;4.40;;
12328;SDS011;6230;52.390;10.256;2023-03-17T05:20:15;7.03;;;4.20;;
12328;SDS011;6230;52.390;10.256;2023-03-17T05:22:41;7.50;;;4.60;;
12328;SDS011;6230;52.390;10.256;2023-03-17T05:25:07;7.30;;;4.80;;
12328;SDS011;6230;52.390;10.256;2023-03-17T05:27:32;6.93;;;4.83;;
12328;SDS011;6230;52.390;10.256;2023-03-17T05:29:58;6.17;;;4.27;;
12328;SDS011;6230;52.390;10.256;2023-03-17T05:32:23;6.73;;;4.60;;
12328;SDS011;6230;52.390;10.256;2023-03-17T05:34:49;9.10;;;4.47;;
12328;SDS011;6230;52.390;10.256;2023-03-17T05:37:15;6.67;;;4.97;;
12328;SDS011;6230;52.390;10.256;2023-03-17T05:39:41;10.40;;;6.53;;
12328;SDS011;6230;52.390;10.256;2023-03-17T05:42:07;10.60;;;6.17;;
12328;SDS011;6230;52.390;10.256;2023-03-17T05:44:33;7.67;;;5.83;;
12328;SDS011;6230;52.390;10.256;2023-03-17T05:46:59;6.93;;;5.50;;
12328;SDS011;6230;52.390;10.256;2023-03-17T05:49:26;7.80;;;5.83;;
12328;SDS011;6230;52.390;10.256;2023-03-17T05:51:52;7.53;;;5.67;;
12328;SDS011;6230;52.390;10.256;2023-03-17T05:54:19;6.90;;;4.97;;
12328;SDS011;6230;52.390;10.256;2023-03-17T05:56:46;7.90;;;5.17;;
12328;SDS011;6230;52.390;10.256;2023-03-17T05:59:12;7.20;;;5.20;;
12328;SDS011;6230;52.390;10.256;2023-03-17T06:01:40;6.90;;;5.43;;
12328;SDS011;6230;52.390;10.256;2023-03-17T06:04:06;7.27;;;5.50;;
12328;SDS011;6230;52.390;10.256;2023-03-17T06:06:32;6.43;;;5.40;;
12328;SDS011;6230;52.390;10.256;2023-03-17T06:08:58;7.23;;;5.70;;
12328;SDS011;6230;52.390;10.256;2023-03-17T06:11:24;7.77;;;5.70;;
12328;SDS011;6230;52.390;10.256;2023-03-17T06:13:50;7.43;;;5.70;;
12328;SDS011;6230;52.390;10.256;2023-03-17T06:16:16;5.93;;;4.80;;
12328;SDS011;6230;52.390;10.256;2023-03-17T06:18:42;8.17;;;5.60;;
12328;SDS011;6230;52.390;10.256;2023-03-17T06:21:09;7.77;;;6.37;;
12328;SDS011;6230;52.390;10.256;2023-03-17T06:23:36;9.27;;;6.20;;
12328;SDS011;6230;52.390;10.256;2023-03-17T06:26:01;8.47;;;5.13;;
12328;SDS011;6230;52.390;10.256;2023-03-17T06:28:27;6.93;;;5.43;;
12328;SDS011;6230;52.390;10.256;2023-03-17T06:30:53;7.40;;;5.40;;
12328;SDS011;6230;52.390;10.256;2023-03-17T06:33:18;9.20;;;5.70;;
12328;SDS011;6230;52.390;10.256;2023-03-17T06:35:44;6.80;;;5.70;;
12328;SDS011;6230;52.390;10.256;2023-03-17T06:38:09;8.07;;;6.03;;
12328;SDS011;6230;52.390;10.256;2023-03-17T06:40:35;5.50;;;4.83;;
12328;SDS011;6230;52.390;10.256;2023-03-17T06:43:01;6.50;;;4.80;;
12328;SDS011;6230;52.390;10.256;2023-03-17T06:45:27;7.17;;;5.13;;
12328;SDS011;6230;52.390;10.256;2023-03-17T06:47:53;5.53;;;4.90;;
12328;SDS011;6230;52.390;10.256;2023-03-17T06:50:18;5.87;;;4.70;;
12328;SDS011;6230;52.390;10.256;2023-03-17T06:52:44;7.90;;;5.50;;
12328;SDS011;6230;52.390;10.256;2023-03-17T06:55:10;6.73;;;4.90;;
12328;SDS011;6230;52.390;10.256;2023-03-17T06:57:36;6.63;;;5.93;;
12328;SDS011;6230;52.390;10.256;2023-03-17T07:00:03;5.97;;;4.77;;
12328;SDS011;6230;52.390;10.256;2023-03-17T07:02:30;7.83;;;6.03;;
12328;SDS011;6230;52.390;10.256;2023-03-17T07:04:57;6.27;;;5.07;;
12328;SDS011;6230;52.390;10.256;2023-03-17T07:07:24;6.60;;;4.97;;
12328;SDS011;6230;52.390;10.256;2023-03-17T07:09:50;8.37;;;5.23;;
12328;SDS011;6230;52.390;10.256;2023-03-17T07:12:16;7.17;;;5.43;;
12328;SDS011;6230;52.390;10.256;2023-03-17T07:14:42;7.20;;;5.50;;
12328;SDS011;6230;52.390;10.256;2023-03-17T07:17:12;7.60;;;5.10;;
12328;SDS011;6230;52.390;10.256;2023-03-17T07:19:38;7.50;;;5.07;;
12328;SDS011;6230;52.390;10.256;2023-03-17T07:22:04;5.60;;;4.63;;
12328;SDS011;6230;52.390;10.256;2023-03-17T07:24:30;6.43;;;5.03;;
12328;SDS011;6230;52.390;10.256;2023-03-17T07:26:56;6.13;;;4.67;;
12328;SDS011;6230;52.390;10.256;2023-03-17T07:29:22;6.17;;;4.90;;
12328;SDS011;6230;52.390;10.256;2023-03-17T07:31:47;6.13;;;5.07;;
12328;SDS011;6230;52.390;10.256;2023-03-17T07:34:14;10.47;;;4.70;;
12328;SDS011;6230;52.390;10.256;2023-03-17T07:36:40;7.03;;;5.17;;
12328;SDS011;6230;52.390;10.256;2023-03-17T07:39:06;6.87;;;5.17;;
12328;SDS011;6230;52.390;10.256;2023-03-17T07:41:32;5.33;;;4.67;;
12328;SDS011;6230;52.390;10.256;2023-03-17T07:43:57;6.33;;;4.70;;
12328;SDS011;6230;52.390;10.256;2023-03-17T07:46:23;9.20;;;4.70;;
12328;SDS011;6230;52.390;10.256;2023-03-17T07:48:48;7.90;;;6.17;;
12328;SDS011;6230;52.390;10.256;2023-03-17T07:51:16;6.80;;;5.17;;
12328;SDS011;6230;52.390;10.256;2023-03-17T07:53:45;7.63;;;5.10;;
12328;SDS011;6230;52.390;10.256;2023-03-17T07:56:11;8.40;;;7.57;;
12328;SDS011;6230;52.390;10.256;2023-03-17T07:58:37;10.17;;;5.40;;
12328;SDS011;6230;52.390;10.256;2023-03-17T08:01:04;9.23;;;6.27;;
12328;SDS011;6230;52.390;10.256;2023-03-17T08:03:30;6.73;;;6.10;;
12328;SDS011;6230;52.390;10.256;2023-03-17T08:05:56;7.27;;;4.93;;
12328;SDS011;6230;52.390;10.256;2023-03-17T08:08:23;6.00;;;4.90;;
12328;SDS011;6230;52.390;10.256;2023-03-17T08:10:50;6.37;;;5.50;;
12328;SDS011;6230;52.390;10.256;2023-03-17T08:13:16;7.70;;;5.07;;
12328;SDS011;6230;52.390;10.256;2023-03-17T08:15:43;6.93;;;5.07;;
12328;SDS011;6230;52.390;10.256;2023-03-17T08:18:09;5.63;;;4.70;;
12328;SDS011;6230;52.390;10.256;2023-03-17T08:20:34;8.17;;;4.70;;
12328;SDS011;6230;52.390;10.256;2023-03-17T08:23:00;6.33;;;5.73;;
12328;SDS011;6230;52.390;10.256;2023-03-17T08:25:26;7.87;;;5.40;;
12328;SDS011;6230;52.390;10.256;2023-03-17T08:27:52;5.57;;;5.07;;
12328;SDS011;6230;52.390;10.256;2023-03-17T08:30:19;7.37;;;4.83;;
12328;SDS011;6230;52.390;10.256;2023-03-17T08:32:46;6.77;;;4.50;;
12328;SDS011;6230;52.390;10.256;2023-03-17T08:35:15;5.90;;;4.10;;
12328;SDS011;6230;52.390;10.256;2023-03-17T08:37:42;8.53;;;4.07;;
12328;SDS011;6230;52.390;10.256;2023-03-17T08:40:09;5.13;;;4.40;;
12328;SDS011;6230;52.390;10.256;2023-03-17T08:42:36;6.23;;;4.10;;
12328;SDS011;6230;52.390;10.256;2023-03-17T08:45:02;4.93;;;3.90;;
12328;SDS011;6230;52.390;10.256;2023-03-17T08:47:30;5.73;;;4.13;;
12328;SDS011;6230;52.390;10.256;2023-03-17T08:49:57;7.40;;;4.77;;
12328;SDS011;6230;52.390;10.256;2023-03-17T08:52:24;6.43;;;4.17;;
12328;SDS011;6230;52.390;10.256;2023-03-17T08:54:51;5.13;;;4.13;;
12328;SDS011;6230;52.390;10.256;2023-03-17T08:57:17;4.80;;;3.87;;
12328;SDS011;6230;52.390;10.256;2023-03-17T08:59:44;6.80;;;3.67;;
12328;SDS011;6230;52.390;10.256;2023-03-17T09:02:11;3.90;;;3.50;;
12328;SDS011;6230;52.390;10.256;2023-03-17T09:04:37;5.97;;;3.67;;
12328;SDS011;6230;52.390;10.256;2023-03-17T09:07:04;4.67;;;3.70;;
12328;SDS011;6230;52.390;10.256;2023-03-17T09:09:30;4.80;;;3.93;;
12328;SDS011;6230;52.390;10.256;2023-03-17T09:11:58;6.83;;;4.20;;
12328;SDS011;6230;52.390;10.256;2023-03-17T09:14:24;4.77;;;3.50;;
12328;SDS011;6230;52.390;10.256;2023-03-17T09:16:50;4.60;;;3.30;;
12328;SDS011;6230;52.390;10.256;2023-03-17T09:19:16;5.23;;;3.40;;
12328;SDS011;6230;52.390;10.256;2023-03-17T09:21:41;3.83;;;2.90;;
12328;SDS011;6230;52.390;10.256;2023-03-17T09:24:08;6.23;;;4.10;;
12328;SDS011;6230;52.390;10.256;2023-03-17T09:26:34;3.50;;;2.70;;
12328;SDS011;6230;52.390;10.256;2023-03-17T09:29:00;3.23;;;2.50;;
12328;SDS011;6230;52.390;10.256;2023-03-17T09:31:26;3.33;;;2.33;;
12328;SDS011;6230;52.390;10.256;2023-03-17T09:33:51;2.83;;;2.57;;
12328;SDS011;6230;52.390;10.256;2023-03-17T09:36:17;3.83;;;2.77;;
12328;SDS011;6230;52.390;10.256;2023-03-17T09:38:43;2.87;;;2.50;;
12328;SDS011;6230;52.390;10.256;2023-03-17T09:46:47;4.67;;;2.90;;
12328;SDS011;6230;52.390;10.256;2023-03-17T09:49:47;5.40;;;2.83;;
12328;SDS011;6230;52.390;10.256;2023-03-17T09:52:21;5.03;;;3.33;;
12328;SDS011;6230;52.390;10.256;2023-03-17T09:54:52;5.83;;;2.80;;
12328;SDS011;6230;52.390;10.256;2023-03-17T09:57:26;6.57;;;3.10;;
12328;SDS011;6230;52.390;10.256;2023-03-17T10:02:31;5.77;;;3.93;;
12328;SDS011;6230;52.390;10.256;2023-03-17T10:04:58;4.50;;;3.60;;
12328;SDS011;6230;52.390;10.256;2023-03-17T10:07:39;5.30;;;3.73;;
12328;SDS011;6230;52.390;10.256;2023-03-17T10:10:14;4.68;;;3.40;;
12328;SDS011;6230;52.390;10.256;2023-03-17T10:12:45;3.83;;;3.40;;
12328;SDS011;6230;52.390;10.256;2023-03-17T10:15:34;5.53;;;3.40;;
12328;SDS011;6230;52.390;10.256;2023-03-17T10:18:22;4.23;;;3.20;;
12328;SDS011;6230;52.390;10.256;2023-03-17T10:21:04;4.47;;;3.17;;
12328;SDS011;6230;52.390;10.256;2023-03-17T10:23:33;11.00;;;6.25;;
12328;SDS011;6230;52.390;10.256;2023-03-17T10:26:07;12.70;;;6.80;;
12328;SDS011;6230;52.390;10.256;2023-03-17T10:28:47;4.82;;;3.67;;
12328;SDS011;6230;52.390;10.256;2023-03-17T10:31:14;4.68;;;4.13;;
12328;SDS011;6230;52.390;10.256;2023-03-17T10:34:12;4.87;;;3.67;;
12328;SDS011;6230;52.390;10.256;2023-03-17T10:36:45;5.47;;;4.10;;
12328;SDS011;6230;52.390;10.256;2023-03-17T10:39:15;4.47;;;3.40;;
12328;SDS011;6230;52.390;10.256;2023-03-17T10:44:23;6.20;;;3.67;;
12328;SDS011;6230;52.390;10.256;2023-03-17T10:46:53;5.17;;;4.20;;
12328;SDS011;6230;52.390;10.256;2023-03-17T10:49:20;5.57;;;3.80;;
12328;SDS011;6230;52.390;10.256;2023-03-17T10:51:47;6.80;;;3.67;;
12328;SDS011;6230;52.390;10.256;2023-03-17T10:54:18;4.70;;;3.30;;
12328;SDS011;6230;52.390;10.256;2023-03-17T10:56:48;4.43;;;3.13;;
12328;SDS011;6230;52.390;10.256;2023-03-17T10:59:23;3.67;;;3.20;;
12328;SDS011;6230;52.390;10.256;2023-03-17T11:01:53;4.65;;;3.67;;
12328;SDS011;6230;52.390;10.256;2023-03-17T11:04:24;5.75;;;3.67;;
12328;SDS011;6230;52.390;10.256;2023-03-17T11:06:56;4.32;;;3.13;;
12328;SDS011;6230;52.390;10.256;2023-03-17T11:09:23;6.35;;;3.15;;
12328;SDS011;6230;52.390;10.256;2023-03-17T11:11:59;3.15;;;2.85;;
12328;SDS011;6230;52.390;10.256;2023-03-17T11:14:27;3.45;;;2.70;;
12328;SDS011;6230;52.390;10.256;2023-03-17T11:16:57;3.78;;;2.70;;
12328;SDS011;6230;52.390;10.256;2023-03-17T11:19:42;2.50;;;2.30;;
12328;SDS011;6230;52.390;10.256;2023-03-17T11:22:39;3.58;;;2.55;;
12328;SDS011;6230;52.390;10.256;2023-03-17T11:25:16;4.15;;;2.50;;
12328;SDS011;6230;52.390;10.256;2023-03-17T11:27:55;4.65;;;2.58;;
12328;SDS011;6230;52.390;10.256;2023-03-17T11:30:34;3.40;;;2.60;;
12328;SDS011;6230;52.390;10.256;2023-03-17T11:38:25;3.38;;;2.53;;
12328;SDS011;6230;52.390;10.256;2023-03-17T11:40:58;2.53;;;2.10;;
12328;SDS011;6230;52.390;10.256;2023-03-17T11:46:17;3.92;;;2.53;;
12328;SDS011;6230;52.390;10.256;2023-03-17T11:48:59;5.13;;;2.58;;
12328;SDS011;6230;52.390;10.256;2023-03-17T11:51:45;2.88;;;2.40;;
12328;SDS011;6230;52.390;10.256;2023-03-17T11:57:11;4.22;;;2.47;;
12328;SDS011;6230;52.390;10.256;2023-03-17T11:59:46;3.80;;;2.85;;
12328;SDS011;6230;52.390;10.256;2023-03-17T12:05:02;4.50;;;2.53;;
12328;SDS011;6230;52.390;10.256;2023-03-17T12:07:56;3.75;;;2.67;;
12328;SDS011;6230;52.390;10.256;2023-03-17T12:12:59;3.30;;;2.35;;
12328;SDS011;6230;52.390;10.256;2023-03-17T12:16:04;3.75;;;2.72;;
12328;SDS011;6230;52.390;10.256;2023-03-17T12:18:39;2.97;;;2.63;;
12328;SDS011;6230;52.390;10.256;2023-03-17T12:21:20;6.20;;;2.50;;
12328;SDS011;6230;52.390;10.256;2023-03-17T12:24:03;6.35;;;2.95;;
12328;SDS011;6230;52.390;10.256;2023-03-17T12:26:37;6.68;;;3.05;;
12328;SDS011;6230;52.390;10.256;2023-03-17T12:29:56;4.93;;;3.03;;
12328;SDS011;6230;52.390;10.256;2023-03-17T12:32:05;2.50;;;2.30;;
12328;SDS011;6230;52.390;10.256;2023-03-17T12:34:39;4.88;;;2.97;;
12328;SDS011;6230;52.390;10.256;2023-03-17T12:37:13;5.90;;;2.72;;
12328;SDS011;6230;52.390;10.256;2023-03-17T12:39:39;4.20;;;2.78;;
12328;SDS011;6230;52.390;10.256;2023-03-17T12:45:21;4.22;;;2.65;;
12328;SDS011;6230;52.390;10.256;2023-03-17T12:53:54;4.03;;;2.80;;
12328;SDS011;6230;52.390;10.256;2023-03-17T12:56:30;3.85;;;2.47;;
12328;SDS011;6230;52.390;10.256;2023-03-17T12:58:59;4.38;;;2.90;;
12328;SDS011;6230;52.390;10.256;2023-03-17T13:01:44;4.65;;;2.20;;
12328;SDS011;6230;52.390;10.256;2023-03-17T13:12:33;4.30;;;2.40;;
12328;SDS011;6230;52.390;10.256;2023-03-17T13:15:20;4.63;;;2.55;;
12328;SDS011;6230;52.390;10.256;2023-03-17T13:17:46;6.53;;;2.90;;
12328;SDS011;6230;52.390;10.256;2023-03-17T13:20:16;3.00;;;2.45;;
12328;SDS011;6230;52.390;10.256;2023-03-17T13:25:34;2.95;;;2.55;;
12328;SDS011;6230;52.390;10.256;2023-03-17T13:33:01;3.55;;;2.20;;
12328;SDS011;6230;52.390;10.256;2023-03-17T13:41:25;3.30;;;2.40;;
12328;SDS011;6230;52.390;10.256;2023-03-17T13:52:33;3.30;;;2.45;;
12328;SDS011;6230;52.390;10.256;2023-03-17T13:57:52;3.50;;;2.00;;
12328;SDS011;6230;52.390;10.256;2023-03-17T14:03:02;2.75;;;2.47;;
12328;SDS011;6230;52.390;10.256;2023-03-17T14:05:36;3.38;;;2.10;;
12328;SDS011;6230;52.390;10.256;2023-03-17T14:08:20;2.13;;;1.90;;
12328;SDS011;6230;52.390;10.256;2023-03-17T14:10:58;2.15;;;1.95;;
12328;SDS011;6230;52.390;10.256;2023-03-17T14:13:27;3.70;;;2.10;;
12328;SDS011;6230;52.390;10.256;2023-03-17T14:16:13;2.53;;;2.10;;
12328;SDS011;6230;52.390;10.256;2023-03-17T14:18:46;3.00;;;2.13;;
12328;SDS011;6230;52.390;10.256;2023-03-17T14:21:21;3.25;;;2.40;;
12328;SDS011;6230;52.390;10.256;2023-03-17T14:23:58;3.22;;;1.95;;
12328;SDS011;6230;52.390;10.256;2023-03-17T14:26:27;4.25;;;2.25;;
12328;SDS011;6230;52.390;10.256;2023-03-17T14:28:54;3.35;;;2.17;;
12328;SDS011;6230;52.390;10.256;2023-03-17T14:31:23;3.35;;;2.28;;
12328;SDS011;6230;52.390;10.256;2023-03-17T14:33:55;3.45;;;2.25;;
12328;SDS011;6230;52.390;10.256;2023-03-17T14:36:25;3.00;;;1.90;;
12328;SDS011;6230;52.390;10.256;2023-03-17T14:38:53;8.45;;;5.40;;
12328;SDS011;6230;52.390;10.256;2023-03-17T14:41:21;2.55;;;1.73;;
12328;SDS011;6230;52.390;10.256;2023-03-17T14:43:48;2.90;;;2.28;;
12328;SDS011;6230;52.390;10.256;2023-03-17T14:49:02;3.47;;;2.10;;
12328;SDS011;6230;52.390;10.256;2023-03-17T14:51:39;5.50;;;2.33;;
12328;SDS011;6230;52.390;10.256;2023-03-17T14:54:19;3.60;;;2.40;;
12328;SDS011;6230;52.390;10.256;2023-03-17T14:56:52;2.90;;;2.17;;
12328;SDS011;6230;52.390;10.256;2023-03-17T15:02:22;5.13;;;2.22;;
12328;SDS011;6230;52.390;10.256;2023-03-17T15:04:49;3.55;;;2.38;;
12328;SDS011;6230;52.390;10.256;2023-03-17T15:07:28;3.83;;;2.70;;
12328;SDS011;6230;52.390;10.256;2023-03-17T15:10:00;2.72;;;2.40;;
12328;SDS011;6230;52.390;10.256;2023-03-17T15:12:28;3.17;;;2.15;;
12328;SDS011;6230;52.390;10.256;2023-03-17T15:14:58;6.03;;;2.45;;
12328;SDS011;6230;52.390;10.256;2023-03-17T15:17:27;3.42;;;2.60;;
12328;SDS011;6230;52.390;10.256;2023-03-17T15:19:58;3.42;;;2.75;;
12328;SDS011;6230;52.390;10.256;2023-03-17T15:25:00;4.15;;;2.58;;
12328;SDS011;6230;52.390;10.256;2023-03-17T15:27:39;4.50;;;2.10;;
12328;SDS011;6230;52.390;10.256;2023-03-17T15:30:05;3.78;;;2.20;;
12328;SDS011;6230;52.390;10.256;2023-03-17T15:32:31;2.85;;;2.13;;
12328;SDS011;6230;52.390;10.256;2023-03-17T15:34:56;4.78;;;2.25;;
12328;SDS011;6230;52.390;10.256;2023-03-17T15:37:23;2.58;;;1.92;;
12328;SDS011;6230;52.390;10.256;2023-03-17T15:39:50;3.08;;;2.47;;
12328;SDS011;6230;52.390;10.256;2023-03-17T15:42:18;2.50;;;2.10;;
12328;SDS011;6230;52.390;10.256;2023-03-17T15:44:45;3.15;;;2.45;;
12328;SDS011;6230;52.390;10.256;2023-03-17T15:47:14;4.47;;;2.45;;
12328;SDS011;6230;52.390;10.256;2023-03-17T15:49:45;3.03;;;2.20;;
12328;SDS011;6230;52.390;10.256;2023-03-17T15:54:51;4.72;;;2.53;;
12328;SDS011;6230;52.390;10.256;2023-03-17T15:57:17;5.80;;;2.22;;
12328;SDS011;6230;52.390;10.256;2023-03-17T15:59:43;4.10;;;2.33;;
12328;SDS011;6230;52.390;10.256;2023-03-17T16:02:19;3.17;;;2.15;;
12328;SDS011;6230;52.390;10.256;2023-03-17T16:04:51;3.50;;;2.40;;
12328;SDS011;6230;52.390;10.256;2023-03-17T16:07:17;3.92;;;2.83;;
12328;SDS011;6230;52.390;10.256;2023-03-17T16:09:43;3.17;;;2.20;;
12328;SDS011;6230;52.390;10.256;2023-03-17T16:12:12;6.35;;;2.53;;
12328;SDS011;6230;52.390;10.256;2023-03-17T16:14:39;4.63;;;2.50;;
12328;SDS011;6230;52.390;10.256;2023-03-17T16:17:08;4.00;;;2.53;;
12328;SDS011;6230;52.390;10.256;2023-03-17T16:19:47;3.70;;;2.33;;
12328;SDS011;6230;52.390;10.256;2023-03-17T16:25:09;5.03;;;2.80;;
12328;SDS011;6230;52.390;10.256;2023-03-17T16:27:49;3.15;;;2.50;;
12328;SDS011;6230;52.390;10.256;2023-03-17T16:30:17;6.63;;;3.95;;
12328;SDS011;6230;52.390;10.256;2023-03-17T16:32:51;7.32;;;2.90;;